FFT4146 KLAX-KMCO
Flight info
| Callsign | FFT4146 |
|---|---|
| Flight time | N/A |
| Altitude | 37000 |
| Route | DOTSS2 CLEEE PKE HIDAT KA27O NABOB J74 TXO/N0444F390 J72 SPS TXK MEI DEEDA GRNCH5 |
| Aircraft | A20N/M-SDE2E3FGHIRWXY/LB1 |
Departure
| Time | 2026-04-24 20:20 |
|---|---|
| Airport | Los Angeles International Airport (KLAX) |
Arrival
| Time | N/A |
|---|---|
| Airport | Orlando International Airport (KMCO) |
| Time | Latitude | Longitude | Altitude | Speed | Heading |
|---|---|---|---|---|---|
| 2026-04-24 19:30 | 33.94047 | -118.40745 | 132 ft | 0 kts | 100° |
| 2026-04-24 20:05 | 33.94052 | -118.40779 | 131 ft | 4 kts | 100° |
| 2026-04-24 20:05 | 33.94057 | -118.40814 | 131 ft | 4 kts | 100° |
| 2026-04-24 20:05 | 33.94062 | -118.40851 | 131 ft | 4 kts | 100° |
| 2026-04-24 20:05 | 33.94076 | -118.40878 | 131 ft | 4 kts | 150° |
| 2026-04-24 20:06 | 33.94100 | -118.40880 | 131 ft | 4 kts | 202° |
| 2026-04-24 20:06 | 33.94110 | -118.40872 | 131 ft | 0 kts | 223° |
| 2026-04-24 20:11 | 33.94109 | -118.40873 | 131 ft | 0 kts | 221° |
| 2026-04-24 20:11 | 33.94107 | -118.40875 | 131 ft | 2 kts | 213° |
| 2026-04-24 20:12 | 33.94077 | -118.40867 | 131 ft | 6 kts | 147° |
| 2026-04-24 20:12 | 33.94039 | -118.40835 | 131 ft | 7 kts | 153° |
| 2026-04-24 20:12 | 33.93991 | -118.40823 | 131 ft | 7 kts | 173° |
| 2026-04-24 20:12 | 33.93970 | -118.40819 | 132 ft | 3 kts | 172° |
| 2026-04-24 20:13 | 33.93966 | -118.40819 | 132 ft | 0 kts | 172° |
| 2026-04-24 20:13 | 33.93962 | -118.40818 | 132 ft | 1 kts | 172° |
| 2026-04-24 20:13 | 33.93952 | -118.40816 | 132 ft | 2 kts | 172° |
| 2026-04-24 20:13 | 33.93933 | -118.40813 | 132 ft | 3 kts | 172° |
| 2026-04-24 20:14 | 33.93906 | -118.40801 | 132 ft | 5 kts | 146° |
| 2026-04-24 20:14 | 33.93872 | -118.40765 | 132 ft | 7 kts | 137° |
| 2026-04-24 20:14 | 33.93830 | -118.40715 | 132 ft | 9 kts | 125° |
| 2026-04-24 20:14 | 33.93815 | -118.40626 | 131 ft | 12 kts | 85° |
| 2026-04-24 20:15 | 33.93826 | -118.40512 | 130 ft | 14 kts | 83° |
| 2026-04-24 20:15 | 33.93841 | -118.40375 | 128 ft | 17 kts | 83° |
| 2026-04-24 20:15 | 33.93856 | -118.40220 | 126 ft | 20 kts | 83° |
| 2026-04-24 20:15 | 33.93876 | -118.40032 | 123 ft | 23 kts | 83° |
| 2026-04-24 20:16 | 33.93897 | -118.39827 | 120 ft | 26 kts | 83° |
| 2026-04-24 20:16 | 33.93923 | -118.39591 | 117 ft | 26 kts | 83° |
| 2026-04-24 20:16 | 33.93945 | -118.39366 | 115 ft | 25 kts | 83° |
| 2026-04-24 20:16 | 33.93968 | -118.39138 | 113 ft | 25 kts | 84° |
| 2026-04-24 20:17 | 33.93989 | -118.38924 | 111 ft | 24 kts | 82° |
| 2026-04-24 20:17 | 33.94030 | -118.38529 | 109 ft | 18 kts | 83° |
| 2026-04-24 20:17 | 33.94046 | -118.38370 | 109 ft | 18 kts | 83° |
| 2026-04-24 20:18 | 33.94057 | -118.38260 | 108 ft | 18 kts | 83° |
| 2026-04-24 20:18 | 33.94075 | -118.38079 | 107 ft | 8 kts | 82° |
| 2026-04-24 20:18 | 33.94078 | -118.38040 | 107 ft | 0 kts | 98° |
| 2026-04-24 20:18 | 33.94078 | -118.38036 | 107 ft | 1 kts | 101° |
| 2026-04-24 20:19 | 33.94072 | -118.38022 | 107 ft | 2 kts | 125° |
| 2026-04-24 20:19 | 33.94045 | -118.38007 | 107 ft | 6 kts | 174° |
| 2026-04-24 20:19 | 33.93996 | -118.38026 | 107 ft | 9 kts | 227° |
| 2026-04-24 20:19 | 33.93975 | -118.38112 | 108 ft | 13 kts | 261° |
| 2026-04-24 20:20 | 33.93929 | -118.38513 | 109 ft | 80 kts | 264° |
| 2026-04-24 20:20 | 33.93834 | -118.39498 | 116 ft | 141 kts | 262° |
| 2026-04-24 20:20 | 33.93691 | -118.40885 | 199 ft | 181 kts | 263° |
| 2026-04-24 20:20 | 33.93528 | -118.42398 | 849 ft | 180 kts | 260° |
| 2026-04-24 20:21 | 33.93295 | -118.43853 | 1601 ft | 175 kts | 258° |
| 2026-04-24 20:21 | 33.93021 | -118.45263 | 2241 ft | 174 kts | 258° |
| 2026-04-24 20:21 | 33.92544 | -118.46636 | 2681 ft | 184 kts | 236° |
| 2026-04-24 20:21 | 33.91700 | -118.47866 | 3120 ft | 195 kts | 232° |
| 2026-04-24 20:22 | 33.90843 | -118.49189 | 3580 ft | 206 kts | 235° |
| 2026-04-24 20:22 | 33.89923 | -118.50630 | 3881 ft | 229 kts | 232° |
| 2026-04-24 20:22 | 33.88853 | -118.52159 | 4292 ft | 247 kts | 230° |
| 2026-04-24 20:22 | 33.87655 | -118.53754 | 4826 ft | 261 kts | 230° |
| 2026-04-24 20:23 | 33.86363 | -118.55372 | 5354 ft | 276 kts | 214° |
| 2026-04-24 20:23 | 33.84527 | -118.56059 | 5980 ft | 284 kts | 176° |
| 2026-04-24 20:23 | 33.82627 | -118.55601 | 6948 ft | 278 kts | 163° |
| 2026-04-24 20:23 | 33.80775 | -118.54950 | 7783 ft | 280 kts | 165° |
| 2026-04-24 20:24 | 33.78862 | -118.54359 | 8443 ft | 289 kts | 168° |
| 2026-04-24 20:24 | 33.76852 | -118.53832 | 8991 ft | 301 kts | 171° |
| 2026-04-24 20:24 | 33.74726 | -118.53337 | 9625 ft | 310 kts | 170° |
| 2026-04-24 20:24 | 33.72625 | -118.52667 | 10490 ft | 310 kts | 169° |
| 2026-04-24 20:25 | 33.70551 | -118.51885 | 11108 ft | 322 kts | 155° |
| 2026-04-24 20:25 | 33.68821 | -118.50061 | 11386 ft | 346 kts | 124° |
| 2026-04-24 20:25 | 33.67965 | -118.47319 | 11733 ft | 362 kts | 96° |
| 2026-04-24 20:25 | 33.67738 | -118.44224 | 11981 ft | 381 kts | 100° |
| 2026-04-24 20:26 | 33.66950 | -118.41187 | 12637 ft | 385 kts | 114° |
| 2026-04-24 20:26 | 33.65911 | -118.38210 | 13381 ft | 387 kts | 113° |
| 2026-04-24 20:26 | 33.64941 | -118.35173 | 13980 ft | 393 kts | 108° |
| 2026-04-24 20:26 | 33.64434 | -118.31930 | 14534 ft | 400 kts | 94° |
| 2026-04-24 20:27 | 33.64375 | -118.28594 | 15176 ft | 403 kts | 88° |
| 2026-04-24 20:27 | 33.64455 | -118.25232 | 15807 ft | 406 kts | 87° |
| 2026-04-24 20:27 | 33.64599 | -118.21833 | 16457 ft | 409 kts | 85° |
| 2026-04-24 20:27 | 33.64771 | -118.18414 | 17005 ft | 414 kts | 87° |
| 2026-04-24 20:28 | 33.64760 | -118.14888 | 17487 ft | 421 kts | 92° |
| 2026-04-24 20:28 | 33.64643 | -118.11360 | 18055 ft | 425 kts | 92° |
| 2026-04-24 20:28 | 33.64546 | -118.07801 | 18629 ft | 428 kts | 91° |
| 2026-04-24 20:28 | 33.64490 | -118.04212 | 19196 ft | 431 kts | 90° |
| 2026-04-24 20:29 | 33.64470 | -118.01817 | 19569 ft | 433 kts | 90° |
| 2026-04-24 20:29 | 33.64452 | -117.96943 | 20311 ft | 437 kts | 90° |
| 2026-04-24 20:29 | 33.64445 | -117.93272 | 20829 ft | 441 kts | 90° |
| 2026-04-24 20:29 | 33.64439 | -117.89564 | 21356 ft | 444 kts | 90° |
| 2026-04-24 20:30 | 33.64432 | -117.85829 | 21864 ft | 447 kts | 90° |
| 2026-04-24 20:30 | 33.64473 | -117.82069 | 22360 ft | 450 kts | 86° |
| 2026-04-24 20:30 | 33.64760 | -117.78267 | 22852 ft | 453 kts | 81° |
| 2026-04-24 20:30 | 33.65321 | -117.74524 | 23314 ft | 455 kts | 76° |
| 2026-04-24 20:31 | 33.66036 | -117.70781 | 23763 ft | 459 kts | 75° |
| 2026-04-24 20:31 | 33.66783 | -117.67033 | 24198 ft | 462 kts | 75° |
| 2026-04-24 20:31 | 33.67540 | -117.63230 | 24613 ft | 466 kts | 75° |
| 2026-04-24 20:31 | 33.68288 | -117.59411 | 25006 ft | 470 kts | 75° |
| 2026-04-24 20:32 | 33.69029 | -117.55577 | 25429 ft | 473 kts | 76° |
| 2026-04-24 20:32 | 33.69770 | -117.51715 | 25819 ft | 476 kts | 76° |
| 2026-04-24 20:32 | 33.70513 | -117.47828 | 26161 ft | 480 kts | 76° |
| 2026-04-24 20:32 | 33.71262 | -117.43898 | 26532 ft | 483 kts | 76° |
| 2026-04-24 20:33 | 33.72011 | -117.39954 | 26879 ft | 487 kts | 76° |
| 2026-04-24 20:33 | 33.72786 | -117.35863 | 27207 ft | 490 kts | 76° |
| 2026-04-24 20:33 | 33.73597 | -117.31584 | 27543 ft | 494 kts | 77° |
| 2026-04-24 20:33 | 33.74370 | -117.27342 | 27867 ft | 497 kts | 79° |
| 2026-04-24 20:34 | 33.74901 | -117.23028 | 28232 ft | 499 kts | 85° |
| 2026-04-24 20:34 | 33.75102 | -117.18841 | 28675 ft | 497 kts | 90° |
| 2026-04-24 20:34 | 33.75059 | -117.14610 | 29072 ft | 497 kts | 93° |
| 2026-04-24 20:34 | 33.74942 | -117.10406 | 29477 ft | 497 kts | 94° |
| 2026-04-24 20:35 | 33.74813 | -117.06105 | 29888 ft | 497 kts | 94° |
| 2026-04-24 20:35 | 33.74704 | -117.01900 | 30295 ft | 497 kts | 93° |
| 2026-04-24 20:35 | 33.74610 | -116.97731 | 30736 ft | 496 kts | 93° |
| 2026-04-24 20:35 | 33.74523 | -116.93567 | 31167 ft | 495 kts | 93° |
| 2026-04-24 20:36 | 33.74435 | -116.89440 | 31592 ft | 494 kts | 93° |
| 2026-04-24 20:36 | 33.74345 | -116.85324 | 32039 ft | 492 kts | 93° |
| 2026-04-24 20:36 | 33.74253 | -116.81200 | 32442 ft | 491 kts | 93° |
| 2026-04-24 20:36 | 33.74157 | -116.77082 | 32809 ft | 490 kts | 94° |
| 2026-04-24 20:37 | 33.74062 | -116.72993 | 33173 ft | 489 kts | 93° |
| 2026-04-24 20:37 | 33.73966 | -116.68933 | 33534 ft | 488 kts | 94° |
| 2026-04-24 20:37 | 33.73870 | -116.64858 | 33888 ft | 487 kts | 94° |
| 2026-04-24 20:37 | 33.73770 | -116.60809 | 34198 ft | 487 kts | 93° |
| 2026-04-24 20:38 | 33.73667 | -116.56749 | 34482 ft | 487 kts | 94° |
| 2026-04-24 20:38 | 33.73566 | -116.52698 | 34772 ft | 487 kts | 94° |
| 2026-04-24 20:38 | 33.73465 | -116.48625 | 35056 ft | 487 kts | 94° |
| 2026-04-24 20:38 | 33.73360 | -116.44571 | 35333 ft | 487 kts | 94° |
| 2026-04-24 20:39 | 33.73254 | -116.40508 | 35550 ft | 488 kts | 94° |
| 2026-04-24 20:39 | 33.73147 | -116.36438 | 35755 ft | 489 kts | 94° |
| 2026-04-24 20:39 | 33.73038 | -116.32325 | 35913 ft | 491 kts | 94° |
| 2026-04-24 20:39 | 33.72927 | -116.28224 | 36057 ft | 492 kts | 94° |
| 2026-04-24 20:40 | 33.72815 | -116.24124 | 36246 ft | 493 kts | 94° |
| 2026-04-24 20:40 | 33.72700 | -116.19980 | 36401 ft | 494 kts | 94° |
| 2026-04-24 20:40 | 33.72615 | -116.15839 | 36544 ft | 496 kts | 92° |
| 2026-04-24 20:40 | 33.72719 | -116.11694 | 36702 ft | 497 kts | 88° |
| 2026-04-24 20:41 | 33.73062 | -116.07561 | 36849 ft | 499 kts | 83° |
| 2026-04-24 20:41 | 33.73650 | -116.03468 | 36974 ft | 500 kts | 78° |
| 2026-04-24 20:41 | 33.75536 | -115.95442 | 37076 ft | 501 kts | 70° |
| 2026-04-24 20:42 | 33.77798 | -115.87495 | 37080 ft | 501 kts | 70° |
| 2026-04-24 20:42 | 33.80041 | -115.79550 | 37087 ft | 505 kts | 70° |
| 2026-04-24 20:43 | 33.82279 | -115.71483 | 37082 ft | 512 kts | 70° |
| 2026-04-24 20:43 | 33.84544 | -115.63263 | 37071 ft | 519 kts | 71° |
| 2026-04-24 20:44 | 33.86819 | -115.54972 | 37051 ft | 525 kts | 71° |
| 2026-04-24 20:44 | 33.89108 | -115.46600 | 37036 ft | 530 kts | 70° |
| 2026-04-24 20:45 | 33.91419 | -115.38120 | 37017 ft | 535 kts | 70° |
| 2026-04-24 20:45 | 33.93758 | -115.29520 | 37000 ft | 538 kts | 71° |
| 2026-04-24 20:46 | 33.96080 | -115.20948 | 36995 ft | 539 kts | 71° |
| 2026-04-24 20:46 | 33.98400 | -115.12368 | 36993 ft | 540 kts | 71° |
| 2026-04-24 20:47 | 34.00716 | -115.03757 | 36987 ft | 540 kts | 71° |
| 2026-04-24 20:47 | 34.03032 | -114.95140 | 36991 ft | 540 kts | 71° |
| 2026-04-24 20:48 | 34.05338 | -114.86511 | 36981 ft | 541 kts | 71° |
| 2026-04-24 20:48 | 34.07648 | -114.77845 | 36988 ft | 541 kts | 71° |
| 2026-04-24 20:49 | 34.09941 | -114.69218 | 36985 ft | 541 kts | 71° |
| 2026-04-24 20:49 | 34.12327 | -114.60562 | 36981 ft | 542 kts | 70° |
| 2026-04-24 20:50 | 34.14764 | -114.51936 | 36980 ft | 543 kts | 70° |
| 2026-04-24 20:50 | 34.17185 | -114.43312 | 36976 ft | 542 kts | 70° |
| 2026-04-24 20:51 | 34.19597 | -114.34664 | 36972 ft | 542 kts | 71° |
| 2026-04-24 20:51 | 34.22000 | -114.26000 | 36970 ft | 543 kts | 70° |